createdAt,value
2018-03-26T00:00:57.699Z,9.39
2018-03-26T00:01:57.667Z,9.36
2018-03-26T00:02:57.537Z,9.36
2018-03-26T00:03:57.463Z,9.36
2018-03-26T00:04:57.382Z,9.42
2018-03-26T00:05:57.309Z,9.32
2018-03-26T00:06:57.232Z,9.40
2018-03-26T00:07:57.155Z,9.38
2018-03-26T00:08:57.079Z,9.46
2018-03-26T00:09:57.003Z,9.39
2018-03-26T00:10:56.935Z,9.47
2018-03-26T00:11:56.848Z,9.38
2018-03-26T00:12:56.770Z,9.38
2018-03-26T00:13:56.688Z,9.40
2018-03-26T00:14:56.622Z,9.32
2018-03-26T00:15:56.540Z,9.35
2018-03-26T00:16:56.469Z,9.36
2018-03-26T00:17:56.406Z,9.46
2018-03-26T00:18:56.310Z,9.36
2018-03-26T00:19:56.233Z,9.36
2018-03-26T00:20:56.162Z,9.46
2018-03-26T00:21:56.078Z,9.36
2018-03-26T00:22:56.004Z,9.39
2018-03-26T00:23:55.929Z,9.38
2018-03-26T00:24:55.850Z,9.36
2018-03-26T00:25:55.773Z,9.43
2018-03-26T00:26:55.699Z,9.28
2018-03-26T00:27:55.619Z,9.24
2018-03-26T00:28:55.544Z,9.28
2018-03-26T00:29:55.466Z,9.26
2018-03-26T00:30:55.394Z,9.28
2018-03-26T00:31:55.319Z,9.23
2018-03-26T00:32:55.237Z,9.28
2018-03-26T00:33:55.158Z,9.28
2018-03-26T00:34:55.083Z,9.28
2018-03-26T00:35:55.004Z,9.31
2018-03-26T00:36:54.936Z,9.33
2018-03-26T00:37:54.853Z,9.35
2018-03-26T00:38:54.775Z,9.24
2018-03-26T00:39:54.696Z,9.29
2018-03-26T00:40:54.621Z,9.32
2018-03-26T00:41:54.544Z,9.24
2018-03-26T00:42:54.472Z,9.28
2018-03-26T00:43:54.396Z,9.26
2018-03-26T00:44:54.317Z,9.29
2018-03-26T00:45:54.237Z,9.35
2018-03-26T00:46:54.160Z,9.26
2018-03-26T00:47:54.083Z,9.26
2018-03-26T00:48:54.006Z,9.23
2018-03-26T00:49:53.928Z,9.21
2018-03-26T00:50:53.853Z,9.28
2018-03-26T00:51:53.778Z,9.36
2018-03-26T00:52:53.699Z,9.23
2018-03-26T00:53:53.627Z,9.28
2018-03-26T00:54:53.546Z,9.21
2018-03-26T00:55:53.468Z,9.26
2018-03-26T00:56:53.388Z,9.13
2018-03-26T00:57:53.316Z,9.13
2018-03-26T00:58:53.243Z,9.14
2018-03-26T00:59:53.161Z,9.20
2018-03-26T01:00:53.085Z,9.05
2018-03-26T01:01:53.007Z,9.08
2018-03-26T01:02:52.931Z,8.96
2018-03-26T01:03:52.854Z,8.94
2018-03-26T01:04:52.776Z,8.92
2018-03-26T01:05:52.699Z,9.02
2018-03-26T01:06:52.618Z,8.94
2018-03-26T01:07:52.543Z,9.11
2018-03-26T01:08:52.469Z,9.02
2018-03-26T01:09:52.393Z,9.05
2018-03-26T01:10:52.322Z,9.05
2018-03-26T01:11:52.238Z,9.10
2018-03-26T01:12:52.160Z,9.01
2018-03-26T01:13:52.083Z,9.05
2018-03-26T01:14:52.009Z,9.13
2018-03-26T01:15:51.929Z,8.99
2018-03-26T01:16:51.854Z,9.04
2018-03-26T01:17:51.775Z,9.05
2018-03-26T01:18:51.698Z,8.96
2018-03-26T01:19:51.622Z,9.13
2018-03-26T01:20:51.546Z,8.95
2018-03-26T01:21:51.469Z,9.05
2018-03-26T01:22:51.393Z,9.11
2018-03-26T01:23:51.309Z,9.11
2018-03-26T01:24:51.238Z,9.14
2018-03-26T01:25:51.162Z,9.14
2018-03-26T01:26:51.082Z,9.10
2018-03-26T01:27:51.006Z,8.92
2018-03-26T01:28:50.930Z,8.99
2018-03-26T01:29:50.850Z,8.94
2018-03-26T01:30:50.774Z,8.94
2018-03-26T01:31:50.708Z,8.95
2018-03-26T01:32:50.624Z,8.96
2018-03-26T01:33:50.544Z,8.91
2018-03-26T01:34:50.467Z,8.91
2018-03-26T01:35:50.391Z,8.94
2018-03-26T01:36:50.314Z,8.98
2018-03-26T01:37:50.236Z,8.95
2018-03-26T01:38:50.164Z,8.92
2018-03-26T01:39:50.080Z,8.94
2018-03-26T01:40:50.006Z,8.91
2018-03-26T01:41:49.927Z,8.87
2018-03-26T01:42:49.850Z,8.74
2018-03-26T01:43:49.773Z,8.83
2018-03-26T01:44:49.694Z,8.80
2018-03-26T01:45:49.619Z,8.77
2018-03-26T01:46:49.542Z,8.74
2018-03-26T01:47:49.465Z,8.76
2018-03-26T01:48:49.385Z,8.86
2018-03-26T01:49:49.310Z,8.74
2018-03-26T01:50:49.232Z,8.83
2018-03-26T01:51:49.163Z,8.79
2018-03-26T01:52:49.082Z,8.80
2018-03-26T01:53:49.003Z,8.80
2018-03-26T01:54:48.922Z,8.80
2018-03-26T01:55:48.846Z,8.79
2018-03-26T01:56:48.769Z,8.76
2018-03-26T01:57:48.692Z,8.83
2018-03-26T01:58:48.616Z,8.74
2018-03-26T01:59:48.537Z,8.70
2018-03-26T02:00:48.460Z,8.80
2018-03-26T02:01:48.385Z,8.79
2018-03-26T02:02:48.308Z,8.83
2018-03-26T02:03:48.233Z,8.83
2018-03-26T02:04:48.208Z,8.81
2018-03-26T02:05:48.075Z,8.80
2018-03-26T02:06:47.999Z,8.76
2018-03-26T02:07:47.921Z,8.74
2018-03-26T02:08:47.845Z,8.80
2018-03-26T02:09:47.768Z,8.79
2018-03-26T02:10:47.691Z,8.74
2018-03-26T02:11:47.615Z,8.76
2018-03-26T02:12:47.534Z,8.73
2018-03-26T02:13:47.459Z,8.77
2018-03-26T02:14:47.384Z,8.70
2018-03-26T02:15:47.303Z,8.68
2018-03-26T02:16:47.226Z,8.73
2018-03-26T02:17:47.148Z,8.61
2018-03-26T02:18:47.073Z,8.59
2018-03-26T02:19:46.995Z,8.62
2018-03-26T02:20:46.917Z,8.48
2018-03-26T02:21:46.834Z,8.45
2018-03-26T02:22:46.762Z,8.45
2018-03-26T02:23:46.686Z,8.45
2018-03-26T02:24:46.609Z,8.48
2018-03-26T02:25:46.534Z,8.45
2018-03-26T02:26:46.458Z,8.44
2018-03-26T02:27:46.378Z,8.43
2018-03-26T02:28:46.299Z,8.44
2018-03-26T02:29:46.221Z,8.43
2018-03-26T02:30:46.145Z,8.43
2018-03-26T02:31:46.065Z,8.45
2018-03-26T02:32:45.988Z,8.43
2018-03-26T02:33:45.912Z,8.45
2018-03-26T02:34:45.835Z,8.30
2018-03-26T02:35:45.761Z,8.29
2018-03-26T02:36:45.680Z,8.37
2018-03-26T02:37:45.602Z,8.33
2018-03-26T02:38:45.529Z,8.30
2018-03-26T02:39:45.450Z,8.34
2018-03-26T02:40:45.371Z,8.37
2018-03-26T02:41:45.296Z,8.33
2018-03-26T02:42:45.220Z,8.30
2018-03-26T02:43:45.145Z,8.41
2018-03-26T02:44:45.060Z,8.34
2018-03-26T02:45:44.993Z,8.22
2018-03-26T02:46:44.924Z,8.25
2018-03-26T02:47:44.828Z,8.23
2018-03-26T02:48:44.750Z,8.26
2018-03-26T02:49:44.673Z,8.23
2018-03-26T02:50:44.651Z,8.33
2018-03-26T02:51:44.517Z,8.20
2018-03-26T02:52:44.441Z,8.18
2018-03-26T02:53:44.369Z,8.20
2018-03-26T02:54:44.327Z,8.34
2018-03-26T02:55:44.240Z,8.26
2018-03-26T02:56:44.135Z,8.33
2018-03-26T02:57:44.052Z,8.22
2018-03-26T02:58:43.979Z,8.23
2018-03-26T02:59:43.900Z,8.16
2018-03-26T03:00:43.816Z,8.19
2018-03-26T03:01:43.745Z,8.04
2018-03-26T03:02:43.665Z,7.97
2018-03-26T03:03:43.586Z,8.12
2018-03-26T03:04:43.513Z,8.05
2018-03-26T03:05:43.431Z,8.01
2018-03-26T03:06:43.356Z,8.10
2018-03-26T03:07:43.283Z,8.04
2018-03-26T03:08:43.198Z,7.98
2018-03-26T03:09:43.127Z,8.10
2018-03-26T03:10:43.044Z,8.01
2018-03-26T03:11:42.966Z,8.04
2018-03-26T03:12:42.888Z,8.02
2018-03-26T03:13:42.814Z,7.89
2018-03-26T03:14:42.735Z,7.98
2018-03-26T03:15:42.656Z,7.85
2018-03-26T03:16:42.577Z,7.90
2018-03-26T03:17:42.501Z,7.86
2018-03-26T03:18:42.425Z,7.92
2018-03-26T03:19:42.344Z,7.92
2018-03-26T03:20:42.274Z,7.93
2018-03-26T03:21:42.192Z,7.95
2018-03-26T03:22:42.117Z,7.89
2018-03-26T03:23:42.054Z,7.93
2018-03-26T03:24:41.955Z,7.92
2018-03-26T03:25:41.877Z,7.89
2018-03-26T03:26:41.801Z,7.90
2018-03-26T03:27:41.722Z,7.95
2018-03-26T03:28:41.643Z,7.93
2018-03-26T03:29:41.567Z,7.92
2018-03-26T03:30:41.487Z,7.87
2018-03-26T03:31:41.413Z,7.86
2018-03-26T03:32:41.335Z,7.86
2018-03-26T03:33:41.255Z,7.90
2018-03-26T03:34:41.178Z,7.80
2018-03-26T03:35:41.102Z,7.86
2018-03-26T03:36:41.028Z,7.72
2018-03-26T03:37:40.944Z,7.86
2018-03-26T03:38:40.866Z,7.87
2018-03-26T03:39:40.793Z,7.80
2018-03-26T03:40:40.710Z,7.87
2018-03-26T03:41:40.631Z,7.85
2018-03-26T03:42:40.557Z,7.85
2018-03-26T03:43:40.479Z,7.89
2018-03-26T03:44:40.400Z,7.79
2018-03-26T03:45:40.323Z,7.79
2018-03-26T03:46:40.244Z,7.79
2018-03-26T03:47:40.167Z,7.71
2018-03-26T03:48:40.088Z,7.72
2018-03-26T03:49:40.011Z,7.71
2018-03-26T03:50:39.932Z,7.67
2018-03-26T03:51:39.856Z,7.67
2018-03-26T03:52:39.780Z,7.63
2018-03-26T03:53:39.699Z,7.80
2018-03-26T03:54:39.623Z,7.68
2018-03-26T03:55:39.547Z,7.71
2018-03-26T03:56:39.465Z,7.74
2018-03-26T03:57:39.387Z,7.68
2018-03-26T03:58:39.308Z,7.75
2018-03-26T03:59:39.232Z,7.63
2018-03-26T04:00:39.158Z,7.71
2018-03-26T04:01:39.082Z,7.69
2018-03-26T04:02:38.997Z,7.64
2018-03-26T04:03:38.923Z,7.63
2018-03-26T04:04:38.844Z,7.67
2018-03-26T04:05:38.765Z,7.74
2018-03-26T04:06:38.688Z,7.64
2018-03-26T04:07:38.609Z,7.58
2018-03-26T04:08:38.530Z,7.69
2018-03-26T04:09:38.453Z,7.67
2018-03-26T04:10:38.374Z,7.64
2018-03-26T04:11:38.329Z,7.68
2018-03-26T04:12:38.218Z,7.75
2018-03-26T04:13:38.141Z,7.69
2018-03-26T04:14:38.064Z,7.68
2018-03-26T04:15:37.989Z,7.69
2018-03-26T04:16:37.910Z,7.68
2018-03-26T04:17:37.828Z,7.72
2018-03-26T04:18:37.756Z,7.71
2018-03-26T04:19:37.673Z,7.69
2018-03-26T04:20:37.597Z,7.64
2018-03-26T04:21:37.517Z,7.69
2018-03-26T04:22:37.442Z,7.64
2018-03-26T04:23:37.362Z,7.67
2018-03-26T04:24:37.279Z,7.60
2018-03-26T04:25:37.205Z,7.67
2018-03-26T04:26:37.136Z,7.67
2018-03-26T04:27:37.046Z,7.61
2018-03-26T04:28:36.971Z,7.63
2018-03-26T04:29:36.893Z,7.64
2018-03-26T04:30:36.816Z,7.68
2018-03-26T04:31:36.737Z,7.74
2018-03-26T04:32:36.671Z,7.57
2018-03-26T04:33:36.580Z,7.61
2018-03-26T04:34:36.504Z,7.61
2018-03-26T04:35:36.424Z,7.67
2018-03-26T04:36:36.436Z,7.64
2018-03-26T04:37:36.268Z,7.57
2018-03-26T04:38:36.191Z,7.68
2018-03-26T04:39:36.109Z,7.52
2018-03-26T04:40:36.035Z,7.50
2018-03-26T04:41:35.964Z,7.55
2018-03-26T04:42:35.882Z,7.53
2018-03-26T04:43:35.798Z,7.52
2018-03-26T04:44:35.726Z,7.50
2018-03-26T04:45:35.645Z,7.49
2018-03-26T04:46:35.570Z,7.50
2018-03-26T04:47:35.487Z,7.49
2018-03-26T04:48:35.409Z,7.57
2018-03-26T04:49:35.348Z,7.49
2018-03-26T04:50:35.254Z,7.48
2018-03-26T04:51:35.180Z,7.49
2018-03-26T04:52:35.102Z,7.49
2018-03-26T04:53:35.020Z,7.49
2018-03-26T04:54:34.940Z,7.52
2018-03-26T04:55:34.862Z,7.58
2018-03-26T04:56:34.783Z,7.50
2018-03-26T04:57:34.708Z,7.53
2018-03-26T04:58:34.631Z,7.64
2018-03-26T04:59:34.604Z,7.64
2018-03-26T05:00:34.473Z,7.55
2018-03-26T05:01:34.396Z,7.49
2018-03-26T05:02:34.313Z,7.49
2018-03-26T05:03:34.238Z,7.46
2018-03-26T05:04:34.164Z,7.55
2018-03-26T05:05:34.081Z,7.42
2018-03-26T05:06:34.010Z,7.39
2018-03-26T05:07:33.924Z,7.40
2018-03-26T05:08:33.856Z,7.35
2018-03-26T05:09:33.779Z,7.34
2018-03-26T05:10:33.703Z,7.46
2018-03-26T05:11:33.615Z,7.43
2018-03-26T05:12:33.535Z,7.40
2018-03-26T05:13:33.458Z,7.43
2018-03-26T05:14:33.383Z,7.46
2018-03-26T05:15:33.303Z,7.42
2018-03-26T05:16:33.223Z,7.32
2018-03-26T05:17:33.144Z,7.35
2018-03-26T05:18:33.068Z,7.34
2018-03-26T05:19:32.988Z,7.30
2018-03-26T05:20:32.916Z,7.40
2018-03-26T05:21:32.831Z,7.28
2018-03-26T05:22:32.754Z,7.31
2018-03-26T05:23:32.674Z,7.25
2018-03-26T05:24:32.598Z,7.30
2018-03-26T05:25:32.517Z,7.28
2018-03-26T05:26:32.441Z,7.24
2018-03-26T05:27:32.371Z,7.21
2018-03-26T05:28:32.287Z,7.16
2018-03-26T05:29:32.206Z,7.16
2018-03-26T05:30:32.128Z,7.20
2018-03-26T05:31:32.051Z,7.21
2018-03-26T05:32:31.973Z,7.16
2018-03-26T05:33:31.893Z,7.20
2018-03-26T05:34:31.817Z,7.27
2018-03-26T05:35:31.736Z,7.20
2018-03-26T05:36:31.656Z,7.21
2018-03-26T05:37:31.581Z,7.10
2018-03-26T05:38:31.507Z,7.20
2018-03-26T05:39:31.424Z,7.21
2018-03-26T05:40:31.368Z,7.20
2018-03-26T05:41:31.267Z,7.16
2018-03-26T05:42:31.188Z,7.16
2018-03-26T05:43:31.105Z,7.06
2018-03-26T05:44:31.037Z,7.03
2018-03-26T05:45:30.953Z,7.06
2018-03-26T05:46:30.872Z,6.99
2018-03-26T05:47:30.796Z,6.99
2018-03-26T05:48:30.722Z,7.02
2018-03-26T05:49:30.642Z,6.91
2018-03-26T05:50:30.563Z,6.99
2018-03-26T05:51:30.483Z,6.87
2018-03-26T05:52:30.406Z,6.88
2018-03-26T05:53:30.331Z,6.87
2018-03-26T05:54:30.267Z,6.81
2018-03-26T05:55:30.170Z,6.88
2018-03-26T05:56:30.096Z,6.87
2018-03-26T05:57:30.011Z,7.03
2018-03-26T05:58:29.934Z,6.97
2018-03-26T05:59:29.860Z,6.88
2018-03-26T06:00:29.777Z,6.84
2018-03-26T06:01:29.701Z,6.88
2018-03-26T06:02:29.621Z,6.91
2018-03-26T06:03:29.543Z,6.92
2018-03-26T06:04:29.467Z,6.91
2018-03-26T06:05:29.379Z,6.88
2018-03-26T06:06:29.313Z,6.89
2018-03-26T06:07:29.226Z,6.91
2018-03-26T06:08:29.148Z,6.89
2018-03-26T06:09:29.070Z,6.85
2018-03-26T06:10:28.993Z,6.76
2018-03-26T06:11:28.916Z,6.66
2018-03-26T06:12:28.836Z,6.73
2018-03-26T06:13:28.756Z,6.73
2018-03-26T06:14:28.682Z,6.69
2018-03-26T06:15:28.645Z,6.70
2018-03-26T06:16:28.521Z,6.74
2018-03-26T06:17:28.443Z,6.80
2018-03-26T06:18:28.366Z,6.71
2018-03-26T06:19:28.284Z,6.71
2018-03-26T06:20:28.210Z,6.76
2018-03-26T06:21:28.129Z,6.85
2018-03-26T06:22:28.051Z,6.84
2018-03-26T06:23:27.973Z,6.81
2018-03-26T06:24:27.898Z,6.87
2018-03-26T06:25:27.818Z,6.81
2018-03-26T06:26:27.737Z,6.95
2018-03-26T06:27:27.657Z,6.87
2018-03-26T06:28:27.580Z,6.91
2018-03-26T06:29:27.504Z,6.94
2018-03-26T06:30:27.473Z,6.87
2018-03-26T06:31:27.811Z,6.88
2018-03-26T06:32:27.265Z,6.85
2018-03-26T06:33:27.212Z,6.89
2018-03-26T06:34:27.108Z,6.98
2018-03-26T06:35:27.028Z,6.87
2018-03-26T06:36:26.950Z,6.98
2018-03-26T06:37:26.896Z,6.85
2018-03-26T06:38:26.797Z,7.05
2018-03-26T06:39:26.713Z,7.32
2018-03-26T06:40:26.636Z,7.46
2018-03-26T06:41:26.561Z,7.48
2018-03-26T06:42:26.478Z,7.68
2018-03-26T06:43:26.402Z,7.75
2018-03-26T06:44:26.321Z,7.80
2018-03-26T06:45:26.244Z,7.93
2018-03-26T06:46:26.165Z,7.86
2018-03-26T06:47:26.088Z,7.85
2018-03-26T06:48:26.009Z,7.87
2018-03-26T06:49:25.930Z,7.61
2018-03-26T06:50:25.852Z,7.64
2018-03-26T06:51:25.774Z,7.60
2018-03-26T06:52:25.695Z,7.35
2018-03-26T06:53:25.632Z,7.27
2018-03-26T06:54:25.538Z,7.25
2018-03-26T06:55:25.461Z,7.17
2018-03-26T06:56:25.380Z,7.13
2018-03-26T06:57:25.306Z,7.17
2018-03-26T06:58:25.230Z,7.20
2018-03-26T06:59:25.147Z,7.30
2018-03-26T07:00:25.070Z,7.20
2018-03-26T07:01:24.994Z,7.21
2018-03-26T07:02:24.917Z,7.28
2018-03-26T07:03:24.842Z,7.37
2018-03-26T07:04:24.763Z,7.24
2018-03-26T07:05:24.676Z,7.27
2018-03-26T07:06:24.601Z,7.24
2018-03-26T07:07:24.524Z,7.28
2018-03-26T07:08:24.449Z,7.27
2018-03-26T07:09:24.367Z,7.43
2018-03-26T07:10:24.287Z,7.53
2018-03-26T07:11:24.210Z,7.64
2018-03-26T07:12:24.165Z,7.57
2018-03-26T07:13:24.055Z,7.57
2018-03-26T07:14:23.976Z,7.50
2018-03-26T07:15:23.896Z,7.64
2018-03-26T07:16:23.822Z,7.61
2018-03-26T07:17:23.747Z,7.61
2018-03-26T07:18:23.665Z,7.52
2018-03-26T07:19:23.580Z,7.45
2018-03-26T07:20:23.508Z,7.61
2018-03-26T07:21:23.434Z,7.53
2018-03-26T07:22:23.354Z,7.49
2018-03-26T07:23:23.273Z,7.35
2018-03-26T07:24:23.197Z,7.53
2018-03-26T07:25:23.117Z,7.68
2018-03-26T07:26:23.042Z,7.55
2018-03-26T07:27:22.963Z,7.57
2018-03-26T07:28:22.880Z,7.50
2018-03-26T07:29:22.807Z,7.57
2018-03-26T07:30:22.730Z,7.57
2018-03-26T07:31:22.661Z,7.52
2018-03-26T07:32:22.573Z,7.63
2018-03-26T07:33:22.497Z,7.68
2018-03-26T07:34:22.442Z,7.75
2018-03-26T07:35:22.339Z,7.87
2018-03-26T07:36:22.262Z,7.92
2018-03-26T07:37:22.186Z,8.07
2018-03-26T07:38:22.114Z,8.11
2018-03-26T07:39:22.029Z,8.12
2018-03-26T07:40:21.954Z,8.12
2018-03-26T07:41:21.879Z,8.20
2018-03-26T07:42:21.797Z,8.22
2018-03-26T07:43:21.719Z,8.15
2018-03-26T07:44:21.644Z,8.12
2018-03-26T07:45:21.564Z,8.25
2018-03-26T07:46:21.490Z,8.18
2018-03-26T07:47:21.409Z,8.01
2018-03-26T07:48:21.332Z,8.00
2018-03-26T07:49:21.256Z,8.01
2018-03-26T07:50:21.182Z,7.95
2018-03-26T07:51:21.099Z,8.15
2018-03-26T07:52:21.026Z,8.25
2018-03-26T07:53:20.945Z,8.33
2018-03-26T07:54:20.869Z,8.40
2018-03-26T07:55:20.792Z,8.55
2018-03-26T07:56:20.715Z,8.73
2018-03-26T07:57:20.639Z,8.53
2018-03-26T07:58:20.558Z,8.47
2018-03-26T07:59:20.482Z,8.77
2018-03-26T08:00:20.407Z,8.53
2018-03-26T08:01:20.330Z,8.38
2018-03-26T08:02:20.254Z,8.37
2018-03-26T08:03:20.177Z,8.45
2018-03-26T08:04:20.098Z,8.28
2018-03-26T08:05:20.022Z,8.23
2018-03-26T08:06:19.945Z,8.12
2018-03-26T08:07:19.867Z,8.18
2018-03-26T08:08:19.796Z,7.90
2018-03-26T08:09:19.714Z,8.01
2018-03-26T08:10:19.636Z,8.19
2018-03-26T08:11:19.559Z,8.36
2018-03-26T08:12:19.484Z,8.83
2018-03-26T08:13:19.409Z,9.01
2018-03-26T08:14:19.329Z,8.86
2018-03-26T08:15:19.254Z,8.41
2018-03-26T08:16:19.177Z,8.16
2018-03-26T08:17:19.152Z,8.00
2018-03-26T08:18:19.024Z,8.15
2018-03-26T08:19:18.946Z,8.34
2018-03-26T08:20:18.870Z,8.89
2018-03-26T08:21:18.798Z,9.40
2018-03-26T08:22:18.721Z,9.46
2018-03-26T08:23:18.641Z,9.26
2018-03-26T08:24:18.565Z,9.31
2018-03-26T08:25:18.490Z,9.40
2018-03-26T08:26:18.412Z,9.53
2018-03-26T08:27:18.339Z,9.54
2018-03-26T08:28:18.261Z,9.97
2018-03-26T08:29:18.187Z,10.41
2018-03-26T08:30:18.105Z,10.99
2018-03-26T08:31:18.029Z,10.85
2018-03-26T08:32:17.961Z,10.96
2018-03-26T08:33:17.874Z,11.24
2018-03-26T08:34:17.804Z,11.76
2018-03-26T08:35:17.728Z,11.76
2018-03-26T08:36:17.653Z,11.47
2018-03-26T08:37:17.579Z,11.58
2018-03-26T08:38:17.502Z,11.62
2018-03-26T08:39:17.427Z,10.99
2018-03-26T08:40:17.353Z,11.10
2018-03-26T08:41:17.306Z,11.17
2018-03-26T08:42:17.293Z,11.19
2018-03-26T08:43:17.130Z,11.06
2018-03-26T08:44:17.059Z,10.99
2018-03-26T08:45:16.980Z,10.81
2018-03-26T08:46:16.908Z,10.68
2018-03-26T08:47:16.854Z,10.56
2018-03-26T08:48:16.760Z,10.38
2018-03-26T08:49:16.686Z,10.20
2018-03-26T08:50:16.628Z,10.30
2018-03-26T08:51:16.541Z,10.32
2018-03-26T08:52:16.464Z,10.02
2018-03-26T08:53:16.391Z,10.15
2018-03-26T08:54:16.316Z,10.26
2018-03-26T08:55:16.240Z,10.08
2018-03-26T08:56:16.229Z,10.34
2018-03-26T08:57:16.092Z,10.85
2018-03-26T08:58:16.018Z,10.60
2018-03-26T08:59:15.964Z,10.45
2018-03-26T09:00:15.871Z,10.41
2018-03-26T09:01:15.798Z,10.29
2018-03-26T09:02:15.723Z,10.48
2018-03-26T09:03:15.649Z,10.67
2018-03-26T09:04:15.573Z,10.71
2018-03-26T09:05:15.500Z,10.81
2018-03-26T09:06:15.423Z,10.86
2018-03-26T09:07:15.351Z,11.14
2018-03-26T09:08:15.277Z,11.60
2018-03-26T09:09:15.203Z,11.24
2018-03-26T09:10:15.142Z,11.33
2018-03-26T09:11:15.079Z,11.44
2018-03-26T09:12:15.032Z,11.06
2018-03-26T09:13:14.905Z,11.22
2018-03-26T09:14:14.833Z,11.32
2018-03-26T09:15:14.762Z,11.25
2018-03-26T09:16:14.723Z,11.33
2018-03-26T09:17:14.612Z,11.33
2018-03-26T09:18:14.537Z,11.40
2018-03-26T09:19:14.465Z,11.73
2018-03-26T09:20:14.392Z,11.40
2018-03-26T09:21:14.317Z,11.17
2018-03-26T09:22:14.250Z,11.02
2018-03-26T09:23:14.170Z,11.15
2018-03-26T09:24:14.098Z,10.91
2018-03-26T09:25:14.036Z,10.86
2018-03-26T09:26:13.954Z,10.44
2018-03-26T09:27:13.875Z,10.51
2018-03-26T09:28:13.802Z,10.91
2018-03-26T09:29:13.727Z,10.89
2018-03-26T09:30:13.652Z,10.89
2018-03-26T09:31:13.580Z,11.98
2018-03-26T09:32:13.507Z,12.60
2018-03-26T09:33:13.436Z,12.27
2018-03-26T09:34:13.363Z,12.54
2018-03-26T09:35:13.288Z,12.85
2018-03-26T09:36:13.216Z,12.64
2018-03-26T09:37:13.141Z,13.32
2018-03-26T09:38:13.070Z,14.72
2018-03-26T09:39:12.994Z,15.54
2018-03-26T09:40:12.922Z,16.21
2018-03-26T09:41:12.850Z,14.46
2018-03-26T09:42:12.777Z,13.78
2018-03-26T09:43:12.704Z,12.82
2018-03-26T09:44:12.638Z,12.78
2018-03-26T09:45:12.564Z,13.48
2018-03-26T09:46:12.493Z,14.25
2018-03-26T09:47:12.419Z,13.97
2018-03-26T09:48:12.372Z,14.83
2018-03-26T09:49:12.283Z,15.19
2018-03-26T09:50:12.207Z,15.51
2018-03-26T09:51:12.140Z,15.31
2018-03-26T09:52:12.069Z,15.53
2018-03-26T09:53:12.050Z,15.19
2018-03-26T09:54:11.921Z,14.83
2018-03-26T09:55:11.872Z,15.31
2018-03-26T09:56:11.786Z,14.81
2018-03-26T09:57:11.717Z,14.27
2018-03-26T09:58:11.648Z,14.83
2018-03-26T09:59:11.576Z,15.71
2018-03-26T10:00:11.503Z,16.28
2018-03-26T10:01:11.439Z,15.74
2018-03-26T10:02:11.370Z,15.49
2018-03-26T10:03:11.300Z,14.77
2018-03-26T10:04:11.234Z,14.55
2018-03-26T10:05:11.170Z,14.73
2018-03-26T10:06:11.093Z,13.82
2018-03-26T10:07:11.026Z,14.32
2018-03-26T10:08:10.954Z,15.19
2018-03-26T10:09:10.886Z,14.62
2018-03-26T10:10:10.825Z,14.60
2018-03-26T10:11:10.750Z,13.97
2018-03-26T10:12:10.702Z,13.81
2018-03-26T10:13:10.612Z,15.29
2018-03-26T10:14:10.600Z,15.74
2018-03-26T10:15:10.474Z,15.94
2018-03-26T10:16:10.417Z,16.20
2018-03-26T10:17:10.337Z,14.78
2018-03-26T10:18:10.297Z,14.03
2018-03-26T10:19:10.199Z,13.44
2018-03-26T10:20:10.131Z,13.28
2018-03-26T10:21:10.063Z,13.00
2018-03-26T10:22:09.988Z,13.29
2018-03-26T10:23:09.925Z,13.71
2018-03-26T10:24:09.856Z,14.15
2018-03-26T10:25:09.794Z,14.28
2018-03-26T10:26:09.720Z,14.78
2018-03-26T10:27:09.673Z,14.80
2018-03-26T10:28:09.577Z,14.57
2018-03-26T10:29:09.513Z,14.83
2018-03-26T10:30:09.442Z,14.92
2018-03-26T10:31:09.420Z,14.94
2018-03-26T10:32:09.305Z,14.58
2018-03-26T10:33:09.235Z,14.52
2018-03-26T10:34:09.166Z,13.99
2018-03-26T10:35:09.100Z,13.67
2018-03-26T10:36:09.047Z,14.00
2018-03-26T10:37:08.960Z,13.91
2018-03-26T10:38:08.889Z,13.99
2018-03-26T10:39:08.819Z,13.96
2018-03-26T10:40:08.773Z,13.97
2018-03-26T10:41:08.681Z,14.20
2018-03-26T10:42:08.614Z,14.29
2018-03-26T10:43:08.541Z,14.25
2018-03-26T10:44:08.472Z,14.45
2018-03-26T10:45:08.409Z,14.42
2018-03-26T10:46:08.329Z,14.88
2018-03-26T10:47:08.330Z,14.88
2018-03-26T10:48:08.191Z,14.22
2018-03-26T10:49:08.122Z,13.95
2018-03-26T10:50:08.060Z,14.15
2018-03-26T10:51:08.024Z,14.42
2018-03-26T10:52:07.911Z,14.40
2018-03-26T10:53:07.844Z,14.27
2018-03-26T10:54:07.772Z,14.46
2018-03-26T10:55:07.701Z,14.57
2018-03-26T10:56:07.635Z,14.35
2018-03-26T10:57:07.560Z,14.15
2018-03-26T10:58:07.490Z,14.37
2018-03-26T10:59:07.437Z,13.92
2018-03-26T11:00:07.347Z,13.01
2018-03-26T11:01:07.278Z,12.41
2018-03-26T11:02:07.210Z,12.21
2018-03-26T11:03:07.134Z,12.12
2018-03-26T11:04:07.066Z,12.45
2018-03-26T11:05:06.995Z,12.46
2018-03-26T11:06:06.923Z,12.79
2018-03-26T11:07:06.852Z,12.75
2018-03-26T11:08:06.781Z,13.25
2018-03-26T11:09:06.710Z,13.69
2018-03-26T11:10:06.638Z,14.09
2018-03-26T11:11:06.595Z,14.43
2018-03-26T11:12:06.491Z,14.50
2018-03-26T11:13:06.421Z,14.57
2018-03-26T11:14:06.351Z,14.02
2018-03-26T11:15:06.271Z,14.22
2018-03-26T11:16:06.208Z,14.03
2018-03-26T11:17:06.141Z,14.80
2018-03-26T11:18:06.064Z,15.02
2018-03-26T11:19:05.993Z,14.84
2018-03-26T11:20:05.925Z,15.19
2018-03-26T11:21:05.856Z,15.16
2018-03-26T11:22:05.778Z,14.86
2018-03-26T11:23:05.712Z,14.69
2018-03-26T11:24:05.638Z,14.32
2018-03-26T11:25:05.560Z,14.17
2018-03-26T11:26:05.495Z,14.15
2018-03-26T11:27:05.429Z,14.58
2018-03-26T11:28:05.382Z,14.68
2018-03-26T11:29:05.285Z,14.81
2018-03-26T11:30:05.218Z,14.65
2018-03-26T11:31:05.142Z,14.14
2018-03-26T11:32:05.072Z,13.89
2018-03-26T11:33:05.001Z,13.95
2018-03-26T11:34:04.933Z,13.99
2018-03-26T11:35:04.864Z,13.89
2018-03-26T11:36:04.797Z,14.15
2018-03-26T11:37:04.719Z,14.21
2018-03-26T11:38:04.647Z,14.55
2018-03-26T11:39:04.576Z,14.80
2018-03-26T11:40:04.521Z,14.84
2018-03-26T11:41:04.435Z,15.20
2018-03-26T11:42:04.363Z,15.47
2018-03-26T11:43:04.293Z,15.46
2018-03-26T11:44:04.221Z,15.68
2018-03-26T11:45:04.150Z,15.69
2018-03-26T11:46:04.079Z,16.27
2018-03-26T11:47:04.012Z,16.23
2018-03-26T11:48:03.940Z,16.56
2018-03-26T11:49:03.872Z,16.93
2018-03-26T11:50:03.801Z,16.48
2018-03-26T11:51:03.732Z,15.76
2018-03-26T11:52:03.665Z,15.49
2018-03-26T11:53:03.593Z,15.76
2018-03-26T11:54:03.527Z,15.28
2018-03-26T11:55:03.463Z,15.09
2018-03-26T11:56:03.388Z,15.14
2018-03-26T11:57:03.318Z,15.57
2018-03-26T11:58:03.248Z,16.07
2018-03-26T11:59:03.181Z,15.86
2018-03-26T12:00:03.114Z,15.94
2018-03-26T12:01:03.063Z,15.93
2018-03-26T12:02:02.970Z,15.78
2018-03-26T12:03:02.901Z,15.90
2018-03-26T12:04:02.836Z,16.25
2018-03-26T12:05:02.770Z,15.74
2018-03-26T12:06:02.699Z,15.94
2018-03-26T12:07:02.624Z,15.97
2018-03-26T12:08:02.557Z,15.83
2018-03-26T12:09:02.489Z,15.19
2018-03-26T12:10:02.417Z,14.83
2018-03-26T12:11:02.352Z,14.69
2018-03-26T12:12:02.281Z,14.57
2018-03-26T12:13:02.231Z,14.72
2018-03-26T12:14:02.143Z,14.60
2018-03-26T12:15:02.073Z,14.57
2018-03-26T12:16:02.005Z,14.89
2018-03-26T12:17:01.936Z,15.50
2018-03-26T12:18:01.865Z,15.83
2018-03-26T12:19:01.797Z,15.69
2018-03-26T12:20:01.720Z,15.47
2018-03-26T12:21:01.655Z,15.59
2018-03-26T12:22:01.587Z,15.56
2018-03-26T12:23:01.515Z,15.59
2018-03-26T12:24:01.446Z,15.72
2018-03-26T12:25:01.371Z,15.62
2018-03-26T12:26:01.309Z,15.46
2018-03-26T12:27:01.237Z,15.09
2018-03-26T12:28:01.165Z,14.51
2018-03-26T12:29:01.097Z,14.70
2018-03-26T12:30:01.030Z,14.52
2018-03-26T12:31:01.008Z,14.46
2018-03-26T12:32:00.887Z,14.50
2018-03-26T12:33:00.818Z,14.70
2018-03-26T12:34:00.747Z,14.57
2018-03-26T12:35:00.679Z,14.28
2018-03-26T12:36:00.603Z,14.42
2018-03-26T12:37:00.538Z,14.54
2018-03-26T12:38:00.464Z,14.61
2018-03-26T12:39:00.396Z,14.57
2018-03-26T12:40:00.385Z,14.81
2018-03-26T12:41:00.256Z,14.89
2018-03-26T12:42:00.183Z,15.02
2018-03-26T12:43:00.171Z,15.28
2018-03-26T12:44:00.044Z,15.62
2018-03-26T12:44:59.972Z,15.74
2018-03-26T12:45:59.906Z,15.78
2018-03-26T12:46:59.832Z,15.59
2018-03-26T12:47:59.763Z,14.83
2018-03-26T12:48:59.693Z,14.96
2018-03-26T12:49:59.623Z,14.99
2018-03-26T12:50:59.550Z,14.91
2018-03-26T12:51:59.483Z,14.80
2018-03-26T12:52:59.412Z,14.75
2018-03-26T12:53:59.340Z,14.75
2018-03-26T12:54:59.275Z,14.65
2018-03-26T12:55:59.198Z,13.97
2018-03-26T12:56:59.126Z,14.35
2018-03-26T12:57:59.056Z,14.51
2018-03-26T12:58:58.984Z,14.50
2018-03-26T12:59:58.930Z,14.04
2018-03-26T13:00:58.844Z,13.99
2018-03-26T13:01:58.775Z,14.02
2018-03-26T13:02:58.701Z,14.09
2018-03-26T13:03:58.633Z,14.43
2018-03-26T13:04:58.561Z,14.55
2018-03-26T13:05:58.491Z,14.54
2018-03-26T13:06:58.420Z,14.61
2018-03-26T13:07:58.346Z,14.64
2018-03-26T13:08:58.280Z,14.32